Time;durP1;ratioP1;P1;durP2;ratioP2;P2;SDS_P1;SDS_P2;PMS_P1;PMS_P2;Temp;Humidity;BMP_temperature;BMP_pressure;BME280_temperature;BME280_humidity;BME280_pressure;Samples;Min_cycle;Max_cycle;Signal;HPM_P1;HPM_P2
2023/03/07 00:00:54;;;;;;;;;;;4.10;99.90;;;;;;5061497;28;19932;-76
2023/03/07 00:03:20;;;;;;;;;;;4.10;99.90;;;;;;5077230;28;19966;-76
2023/03/07 00:05:46;;;;;;;;;;;4.10;99.90;;;;;;5078062;28;19988;-76
2023/03/07 00:08:11;;;;;;;;;;;4.10;99.90;;;;;;5061052;28;19924;-76
2023/03/07 00:10:37;;;;;;;;;;;4.10;99.90;;;;;;5078399;28;19931;-77
2023/03/07 00:13:03;;;;;;;;;;;4.10;99.90;;;;;;5079474;28;19978;-77
2023/03/07 00:15:29;;;;;;;;;;;4.00;99.90;;;;;;5075663;28;20013;-77
2023/03/07 00:17:55;;;;;;;;;;;4.00;99.90;;;;;;5077800;28;19939;-77
2023/03/07 00:20:21;;;;;;;;;;;4.00;99.90;;;;;;5058949;28;19936;-77
2023/03/07 00:22:46;;;;;;;;;;;4.00;99.90;;;;;;5059418;28;20007;-76
2023/03/07 00:25:13;;;;;;;;;;;4.00;99.90;;;;;;5093467;28;19924;-76
2023/03/07 00:27:39;;;;;;;;;;;4.00;99.90;;;;;;5095339;28;19928;-76
2023/03/07 00:30:05;;;;;;;;;;;4.00;99.90;;;;;;5077330;28;20015;-76
2023/03/07 00:32:31;;;;;;;;;;;4.00;99.90;;;;;;5077439;28;19924;-77
2023/03/07 00:34:57;;;;;;;;;;;3.90;99.90;;;;;;5079039;28;19946;-77
2023/03/07 00:37:23;;;;;;;;;;;3.90;99.90;;;;;;5077206;28;19931;-77
2023/03/07 00:39:48;;;;;;;;;;;3.90;99.90;;;;;;5062118;28;19928;-77
2023/03/07 00:42:14;;;;;;;;;;;3.90;99.90;;;;;;5060748;28;19928;-78
2023/03/07 00:44:39;;;;;;;;;;;3.90;99.90;;;;;;5078808;28;19924;-78
2023/03/07 00:47:05;;;;;;;;;;;3.90;99.90;;;;;;5061550;28;19931;-78
2023/03/07 00:49:31;;;;;;;;;;;3.90;99.90;;;;;;5077204;28;20069;-78
2023/03/07 00:51:56;;;;;;;;;;;3.90;99.90;;;;;;5078916;28;20018;-79
2023/03/07 00:54:22;;;;;;;;;;;3.90;99.90;;;;;;5077345;28;19994;-78
2023/03/07 00:56:47;;;;;;;;;;;3.90;99.90;;;;;;5061882;28;20349;-79
2023/03/07 00:59:13;;;;;;;;;;;3.90;99.90;;;;;;5059813;28;19929;-78
2023/03/07 01:01:39;;;;;;;;;;;3.90;99.90;;;;;;5061908;28;19924;-79
2023/03/07 01:04:05;;;;;;;;;;;3.90;99.90;;;;;;5077552;28;19995;-79
2023/03/07 01:06:31;;;;;;;;;;;3.90;99.90;;;;;;5077753;28;19931;-79
2023/03/07 01:08:58;;;;;;;;;;;3.90;99.90;;;;;;5078614;28;19929;-80
2023/03/07 01:11:24;;;;;;;;;;;3.80;99.90;;;;;;5093989;28;20264;-80
2023/03/07 01:13:49;;;;;;;;;;;3.90;99.90;;;;;;5081468;28;19935;-79
2023/03/07 01:16:26;;;;;;;;;;;3.80;99.90;;;;;;5064354;28;19924;-79
2023/03/07 01:18:53;;;;;;;;;;;3.80;99.90;;;;;;5082431;28;19928;-79
2023/03/07 01:21:22;;;;;;;;;;;3.80;99.90;;;;;;5071079;28;20216;-79
2023/03/07 01:23:47;;;;;;;;;;;3.80;99.90;;;;;;5093006;28;19931;-80
2023/03/07 01:26:23;;;;;;;;;;;3.80;99.90;;;;;;5064173;28;19924;-80
2023/03/07 01:28:49;;;;;;;;;;;3.70;99.90;;;;;;5070302;28;19928;-80
2023/03/07 01:31:15;;;;;;;;;;;3.80;99.90;;;;;;5073125;28;19929;-80
2023/03/07 01:33:40;;;;;;;;;;;3.70;99.90;;;;;;5086557;28;19962;-79
2023/03/07 01:36:17;;;;;;;;;;;3.70;99.90;;;;;;5065157;28;20414;-79
2023/03/07 01:38:42;;;;;;;;;;;3.70;99.90;;;;;;5080845;28;19924;-79
2023/03/07 01:41:08;;;;;;;;;;;3.70;99.90;;;;;;5066648;28;19935;-79
2023/03/07 01:43:33;;;;;;;;;;;3.70;99.90;;;;;;5082183;28;19932;-79
2023/03/07 01:46:17;;;;;;;;;;;3.60;99.90;;;;;;5063387;28;19964;-80
2023/03/07 01:48:44;;;;;;;;;;;3.70;99.90;;;;;;5081834;28;19928;-79
2023/03/07 01:51:10;;;;;;;;;;;3.60;99.90;;;;;;5081231;28;20295;-79
2023/03/07 01:53:36;;;;;;;;;;;3.60;99.90;;;;;;5064388;28;19924;-79
2023/03/07 01:56:02;;;;;;;;;;;3.60;99.90;;;;;;5080766;28;19962;-79
2023/03/07 01:58:27;;;;;;;;;;;3.60;99.90;;;;;;5097654;28;19924;-79
2023/03/07 02:00:54;;;;;;;;;;;3.60;99.90;;;;;;5064601;28;20428;-79
2023/03/07 02:03:20;;;;;;;;;;;3.50;99.90;;;;;;5096814;28;19928;-79
2023/03/07 02:05:51;;;;;;;;;;;3.50;99.90;;;;;;5081512;28;19951;-79
2023/03/07 02:08:18;;;;;;;;;;;3.50;99.90;;;;;;5080698;28;19970;-79
2023/03/07 02:10:44;;;;;;;;;;;3.40;99.90;;;;;;5069005;28;19924;-79
2023/03/07 02:13:09;;;;;;;;;;;3.40;99.90;;;;;;5078620;28;19988;-79
2023/03/07 02:15:35;;;;;;;;;;;3.30;99.90;;;;;;5063446;28;19943;-79
2023/03/07 02:18:01;;;;;;;;;;;3.30;99.90;;;;;;5080919;28;19924;-78
2023/03/07 02:20:45;;;;;;;;;;;3.30;99.90;;;;;;5079094;28;19924;-79
2023/03/07 02:23:17;;;;;;;;;;;3.30;99.90;;;;;;5078421;28;19975;-79
2023/03/07 02:25:46;;;;;;;;;;;3.20;99.90;;;;;;5069594;28;19924;-79
2023/03/07 02:28:15;;;;;;;;;;;3.20;99.90;;;;;;5079495;28;19966;-79
2023/03/07 02:30:57;;;;;;;;;;;3.20;99.90;;;;;;5079931;28;19973;-79
2023/03/07 02:33:23;;;;;;;;;;;3.10;99.90;;;;;;5078341;28;19930;-79
2023/03/07 02:35:54;;;;;;;;;;;3.10;99.90;;;;;;5078415;28;20034;-79
2023/03/07 02:38:21;;;;;;;;;;;3.10;99.90;;;;;;5079099;28;19943;-79
2023/03/07 02:40:47;;;;;;;;;;;3.10;99.90;;;;;;5076434;28;19935;-79
2023/03/07 02:43:13;;;;;;;;;;;3.10;99.90;;;;;;5074515;28;19924;-79
2023/03/07 02:45:38;;;;;;;;;;;3.10;99.90;;;;;;5078108;28;20043;-79
2023/03/07 02:48:04;;;;;;;;;;;3.10;99.90;;;;;;5080810;28;19924;-79
2023/03/07 02:50:30;;;;;;;;;;;3.10;99.90;;;;;;5062329;28;20276;-79
2023/03/07 02:52:55;;;;;;;;;;;3.20;99.90;;;;;;5080556;28;20019;-79
2023/03/07 02:55:21;;;;;;;;;;;3.10;99.90;;;;;;5061654;28;20002;-79
2023/03/07 02:57:47;;;;;;;;;;;3.20;99.90;;;;;;5059678;28;19939;-79
2023/03/07 03:00:13;;;;;;;;;;;3.20;99.90;;;;;;5079193;28;19924;-79
2023/03/07 03:02:39;;;;;;;;;;;3.10;99.90;;;;;;5075196;28;19929;-79
2023/03/07 03:05:05;;;;;;;;;;;3.10;99.90;;;;;;5080831;28;19960;-79
2023/03/07 03:07:30;;;;;;;;;;;3.20;99.90;;;;;;5122322;27;19963;-80
2023/03/07 03:09:56;;;;;;;;;;;3.10;99.90;;;;;;5066483;28;20004;-79
2023/03/07 03:12:22;;;;;;;;;;;3.10;99.90;;;;;;5065225;28;20030;-79
2023/03/07 03:14:47;;;;;;;;;;;3.10;99.90;;;;;;5069125;28;19931;-79
2023/03/07 03:17:13;;;;;;;;;;;3.10;99.90;;;;;;5095969;28;19988;-79
2023/03/07 03:19:39;;;;;;;;;;;3.10;99.90;;;;;;5078368;28;19971;-79
2023/03/07 03:22:04;;;;;;;;;;;3.10;99.90;;;;;;5061528;28;19931;-79
2023/03/07 03:24:30;;;;;;;;;;;3.10;99.90;;;;;;5076397;28;19959;-80
2023/03/07 03:26:56;;;;;;;;;;;3.10;99.90;;;;;;5072573;28;20066;-80
2023/03/07 03:29:22;;;;;;;;;;;3.10;99.90;;;;;;5070954;28;20399;-79
2023/03/07 03:31:49;;;;;;;;;;;3.10;99.90;;;;;;5059388;28;19924;-79
2023/03/07 03:34:15;;;;;;;;;;;3.10;99.90;;;;;;5078698;28;19924;-79
2023/03/07 03:36:40;;;;;;;;;;;3.10;99.90;;;;;;5093383;28;19985;-79
2023/03/07 03:39:09;;;;;;;;;;;3.00;99.90;;;;;;5074521;28;19936;-79
2023/03/07 03:41:36;;;;;;;;;;;3.10;99.90;;;;;;5054699;28;19936;-80
2023/03/07 03:44:01;;;;;;;;;;;3.10;99.90;;;;;;5061311;28;19934;-80
2023/03/07 03:46:27;;;;;;;;;;;3.20;99.90;;;;;;5123539;27;19928;-79
2023/03/07 03:48:53;;;;;;;;;;;3.20;99.90;;;;;;5079356;28;19935;-79
2023/03/07 03:51:19;;;;;;;;;;;3.20;99.90;;;;;;5094920;28;19989;-79
2023/03/07 03:53:45;;;;;;;;;;;3.20;99.90;;;;;;5078414;28;19928;-79
2023/03/07 03:56:11;;;;;;;;;;;3.30;99.90;;;;;;5077239;28;19963;-79
2023/03/07 03:58:37;;;;;;;;;;;3.30;99.90;;;;;;5072422;28;19931;-79
2023/03/07 04:01:04;;;;;;;;;;;3.30;99.90;;;;;;5060397;28;19947;-79
2023/03/07 04:03:31;;;;;;;;;;;3.30;99.90;;;;;;5094971;28;19932;-79
2023/03/07 04:05:59;;;;;;;;;;;3.40;99.90;;;;;;5101148;28;19946;-79
2023/03/07 04:08:25;;;;;;;;;;;3.40;99.90;;;;;;5087839;28;19931;-79
2023/03/07 04:10:50;;;;;;;;;;;3.40;99.90;;;;;;5088158;28;19968;-79
2023/03/07 04:13:16;;;;;;;;;;;3.50;99.90;;;;;;5096397;28;20371;-79
2023/03/07 04:15:42;;;;;;;;;;;3.50;99.90;;;;;;5077200;28;19983;-79
2023/03/07 04:18:08;;;;;;;;;;;3.50;99.90;;;;;;5065138;28;19985;-80
2023/03/07 04:20:33;;;;;;;;;;;3.50;99.90;;;;;;5057030;28;20333;-79
2023/03/07 04:22:59;;;;;;;;;;;3.50;99.90;;;;;;5060393;28;19928;-79
2023/03/07 04:25:24;;;;;;;;;;;3.50;99.90;;;;;;5082945;28;19924;-79
2023/03/07 04:27:50;;;;;;;;;;;3.50;99.90;;;;;;5064986;28;19963;-79
2023/03/07 04:30:15;;;;;;;;;;;3.50;99.90;;;;;;5128809;27;19947;-79
2023/03/07 04:32:41;;;;;;;;;;;3.50;99.90;;;;;;5057549;28;19984;-79
2023/03/07 04:35:07;;;;;;;;;;;3.50;99.90;;;;;;5045494;28;19942;-79
2023/03/07 04:37:32;;;;;;;;;;;3.50;99.90;;;;;;5057183;28;20024;-79
2023/03/07 04:39:58;;;;;;;;;;;3.50;99.90;;;;;;5054364;28;19928;-79
2023/03/07 04:42:24;;;;;;;;;;;3.40;99.90;;;;;;5077940;28;19978;-79
2023/03/07 04:44:49;;;;;;;;;;;3.40;99.90;;;;;;5077896;28;19999;-79
2023/03/07 04:47:15;;;;;;;;;;;3.40;99.90;;;;;;5079007;28;19981;-79
2023/03/07 04:49:40;;;;;;;;;;;3.40;99.90;;;;;;5061342;28;19986;-79
2023/03/07 04:52:06;;;;;;;;;;;3.40;99.90;;;;;;5062352;28;19939;-79
2023/03/07 04:54:32;;;;;;;;;;;3.40;99.90;;;;;;5081358;28;19924;-78
2023/03/07 04:56:57;;;;;;;;;;;3.40;99.90;;;;;;5082708;28;20007;-79
2023/03/07 04:59:23;;;;;;;;;;;3.30;99.90;;;;;;5062794;28;19931;-78
2023/03/07 05:01:49;;;;;;;;;;;3.30;99.90;;;;;;5078655;28;19929;-78
2023/03/07 05:04:14;;;;;;;;;;;3.30;99.90;;;;;;5132205;27;19924;-78
2023/03/07 05:06:40;;;;;;;;;;;3.30;99.90;;;;;;5070405;28;20034;-79
2023/03/07 05:09:05;;;;;;;;;;;3.30;99.90;;;;;;5098922;28;19936;-78
2023/03/07 05:11:31;;;;;;;;;;;3.30;99.90;;;;;;5060043;28;19946;-79
2023/03/07 05:13:56;;;;;;;;;;;3.30;99.90;;;;;;5074279;28;19985;-79
2023/03/07 05:16:22;;;;;;;;;;;3.30;99.90;;;;;;5080994;28;19924;-78
2023/03/07 05:18:47;;;;;;;;;;;3.30;99.90;;;;;;5081582;28;19975;-79
2023/03/07 05:21:13;;;;;;;;;;;3.30;99.90;;;;;;5061442;28;19932;-78
2023/03/07 05:23:39;;;;;;;;;;;3.30;99.90;;;;;;5104770;28;19950;-79
2023/03/07 05:26:04;;;;;;;;;;;3.30;99.90;;;;;;5099318;28;19971;-79
2023/03/07 05:28:30;;;;;;;;;;;3.20;99.90;;;;;;5080563;28;19928;-79
2023/03/07 05:30:55;;;;;;;;;;;3.30;99.90;;;;;;5082149;28;19974;-79
2023/03/07 05:33:21;;;;;;;;;;;3.20;99.90;;;;;;5080377;28;19990;-79
2023/03/07 05:35:47;;;;;;;;;;;3.30;99.90;;;;;;5081165;28;19931;-79
2023/03/07 05:38:12;;;;;;;;;;;3.20;99.90;;;;;;5064530;28;19924;-78
2023/03/07 05:40:39;;;;;;;;;;;3.20;99.90;;;;;;5072004;28;20149;-79
2023/03/07 05:43:04;;;;;;;;;;;3.20;99.90;;;;;;5094233;28;20011;-79
2023/03/07 05:45:30;;;;;;;;;;;3.20;99.90;;;;;;5060406;28;20031;-79
2023/03/07 05:47:56;;;;;;;;;;;3.20;99.90;;;;;;5075269;28;19939;-79
2023/03/07 05:50:21;;;;;;;;;;;3.20;99.90;;;;;;5060103;28;19928;-79
2023/03/07 05:52:47;;;;;;;;;;;3.30;99.90;;;;;;5056401;28;20015;-79
2023/03/07 05:55:13;;;;;;;;;;;3.30;99.90;;;;;;5064749;28;19924;-79
2023/03/07 05:57:38;;;;;;;;;;;3.30;99.90;;;;;;5062004;28;19935;-79
2023/03/07 06:00:05;;;;;;;;;;;3.20;99.90;;;;;;5075901;28;20413;-79
2023/03/07 06:02:30;;;;;;;;;;;3.30;99.90;;;;;;5097150;28;20585;-79
2023/03/07 06:04:56;;;;;;;;;;;3.30;99.90;;;;;;5081656;28;19928;-79
2023/03/07 06:07:21;;;;;;;;;;;3.30;99.90;;;;;;5059982;28;19960;-79
2023/03/07 06:09:47;;;;;;;;;;;3.20;99.90;;;;;;5090224;28;19931;-79
2023/03/07 06:12:13;;;;;;;;;;;3.30;99.90;;;;;;5060227;28;19925;-79
2023/03/07 06:14:38;;;;;;;;;;;3.20;99.90;;;;;;5108909;28;19936;-79
2023/03/07 06:17:04;;;;;;;;;;;3.30;99.90;;;;;;5061908;28;19924;-78
2023/03/07 06:19:30;;;;;;;;;;;3.30;99.90;;;;;;5079728;28;20011;-79
2023/03/07 06:21:55;;;;;;;;;;;3.30;99.90;;;;;;5061724;28;19981;-78
2023/03/07 06:24:21;;;;;;;;;;;3.30;99.90;;;;;;5060685;28;19928;-79
2023/03/07 06:26:47;;;;;;;;;;;3.30;99.90;;;;;;5077226;28;19935;-79
2023/03/07 06:29:12;;;;;;;;;;;3.30;99.90;;;;;;5062954;28;19935;-78
2023/03/07 06:31:38;;;;;;;;;;;3.20;99.90;;;;;;5080663;28;20511;-78
2023/03/07 06:34:03;;;;;;;;;;;3.20;99.90;;;;;;5080531;28;20580;-78
2023/03/07 06:36:29;;;;;;;;;;;3.20;99.90;;;;;;5080026;28;19925;-78
2023/03/07 06:38:55;;;;;;;;;;;3.10;99.90;;;;;;5081162;28;19924;-78
2023/03/07 06:41:20;;;;;;;;;;;3.10;99.90;;;;;;5060445;28;19924;-79
2023/03/07 06:43:49;;;;;;;;;;;3.10;99.90;;;;;;5080100;28;20208;-79
2023/03/07 06:46:16;;;;;;;;;;;3.10;99.90;;;;;;5079675;28;19924;-79
2023/03/07 06:48:42;;;;;;;;;;;3.10;99.90;;;;;;5080430;28;19928;-79
2023/03/07 06:51:08;;;;;;;;;;;3.10;99.90;;;;;;5080503;28;19928;-78
2023/03/07 06:53:34;;;;;;;;;;;3.20;99.90;;;;;;5065669;28;20252;-80
2023/03/07 06:55:59;;;;;;;;;;;3.20;99.90;;;;;;5060937;28;19967;-79
2023/03/07 06:58:25;;;;;;;;;;;3.10;99.90;;;;;;5056583;28;19931;-79
2023/03/07 07:00:51;;;;;;;;;;;3.00;99.90;;;;;;5082522;28;19928;-80
2023/03/07 07:03:18;;;;;;;;;;;2.90;99.90;;;;;;5078743;28;19924;-80
2023/03/07 07:05:43;;;;;;;;;;;2.90;99.90;;;;;;5080283;28;19945;-79
2023/03/07 07:08:09;;;;;;;;;;;2.90;99.90;;;;;;5124517;27;19987;-79
2023/03/07 07:10:35;;;;;;;;;;;2.80;99.90;;;;;;5078361;28;20035;-79
2023/03/07 07:13:01;;;;;;;;;;;2.80;99.90;;;;;;5078875;28;19924;-79
2023/03/07 07:15:27;;;;;;;;;;;2.70;99.90;;;;;;5061040;28;19955;-80
2023/03/07 07:17:52;;;;;;;;;;;2.70;99.90;;;;;;5097115;28;19950;-79
2023/03/07 07:20:18;;;;;;;;;;;2.80;99.90;;;;;;5061438;28;19925;-79
2023/03/07 07:22:43;;;;;;;;;;;2.80;99.90;;;;;;5078652;28;19924;-79
2023/03/07 07:25:09;;;;;;;;;;;2.80;99.90;;;;;;5058912;28;19924;-79
2023/03/07 07:27:35;;;;;;;;;;;2.80;99.90;;;;;;5124134;27;19967;-79
2023/03/07 07:30:02;;;;;;;;;;;2.90;99.90;;;;;;5065356;28;20565;-78
2023/03/07 07:32:27;;;;;;;;;;;2.90;99.90;;;;;;5078355;28;19924;-78
2023/03/07 07:34:53;;;;;;;;;;;2.80;99.90;;;;;;5061962;28;20056;-78
2023/03/07 07:37:18;;;;;;;;;;;2.80;99.90;;;;;;5058200;28;19932;-78
2023/03/07 07:39:44;;;;;;;;;;;2.70;99.90;;;;;;5078231;28;19924;-77
2023/03/07 07:42:10;;;;;;;;;;;2.60;99.90;;;;;;5058389;28;19958;-77
2023/03/07 07:44:36;;;;;;;;;;;2.50;99.90;;;;;;5073257;28;19979;-77
2023/03/07 07:47:01;;;;;;;;;;;2.40;99.90;;;;;;5078510;28;19939;-76
2023/03/07 07:49:27;;;;;;;;;;;2.30;99.90;;;;;;5071620;28;19924;-76
2023/03/07 07:51:53;;;;;;;;;;;2.20;99.90;;;;;;5128475;27;19931;-76
2023/03/07 07:54:18;;;;;;;;;;;2.10;99.90;;;;;;5057391;28;20007;-76
2023/03/07 07:56:44;;;;;;;;;;;2.10;99.90;;;;;;5076813;28;20299;-75
2023/03/07 07:59:09;;;;;;;;;;;2.10;99.90;;;;;;5078293;28;19943;-76
2023/03/07 08:01:35;;;;;;;;;;;2.10;99.90;;;;;;5078670;28;19955;-76
2023/03/07 08:04:00;;;;;;;;;;;2.10;99.90;;;;;;5078951;28;19927;-76
2023/03/07 08:06:27;;;;;;;;;;;2.10;99.90;;;;;;5076910;28;19935;-76
2023/03/07 08:08:53;;;;;;;;;;;2.20;99.90;;;;;;5068709;28;19985;-76
2023/03/07 08:11:19;;;;;;;;;;;2.20;99.90;;;;;;5063941;28;19932;-77
2023/03/07 08:13:45;;;;;;;;;;;2.20;99.90;;;;;;5070349;28;19945;-77
2023/03/07 08:16:12;;;;;;;;;;;2.30;99.90;;;;;;5077315;28;19924;-77
2023/03/07 08:18:37;;;;;;;;;;;2.40;99.90;;;;;;5079141;28;20419;-78
2023/03/07 08:21:03;;;;;;;;;;;2.40;99.90;;;;;;5078525;28;19924;-77
2023/03/07 08:23:29;;;;;;;;;;;2.50;99.90;;;;;;5094382;28;19991;-78
2023/03/07 08:25:59;;;;;;;;;;;2.50;99.90;;;;;;5078276;28;19978;-79
2023/03/07 08:28:25;;;;;;;;;;;2.60;99.90;;;;;;5093246;28;19924;-79
2023/03/07 08:30:51;;;;;;;;;;;2.60;99.90;;;;;;5078618;28;19924;-79
2023/03/07 08:33:16;;;;;;;;;;;2.70;99.90;;;;;;5077291;28;19924;-80
2023/03/07 08:35:42;;;;;;;;;;;2.70;99.90;;;;;;5058798;28;20446;-80
2023/03/07 08:38:07;;;;;;;;;;;2.80;99.90;;;;;;5074797;28;19930;-80
2023/03/07 08:40:33;;;;;;;;;;;2.90;99.90;;;;;;5069393;28;19978;-80
2023/03/07 08:42:59;;;;;;;;;;;3.00;99.90;;;;;;5107168;28;19950;-80
2023/03/07 08:45:25;;;;;;;;;;;3.00;99.90;;;;;;5077739;28;19928;-81
2023/03/07 08:47:52;;;;;;;;;;;3.00;99.90;;;;;;5078906;28;20275;-80
2023/03/07 08:50:19;;;;;;;;;;;3.10;99.90;;;;;;5076992;28;19956;-80
2023/03/07 08:52:44;;;;;;;;;;;3.20;99.90;;;;;;5079408;28;19928;-80
2023/03/07 08:55:10;;;;;;;;;;;3.20;99.90;;;;;;5060578;28;19929;-80
2023/03/07 08:57:35;;;;;;;;;;;3.20;99.90;;;;;;5078209;28;19925;-80
2023/03/07 09:00:01;;;;;;;;;;;3.30;99.90;;;;;;5059161;28;19924;-80
2023/03/07 09:02:26;;;;;;;;;;;3.30;99.90;;;;;;5128268;28;19974;-80
2023/03/07 09:04:52;;;;;;;;;;;3.40;99.90;;;;;;5058813;28;19924;-80
2023/03/07 09:07:18;;;;;;;;;;;3.40;99.90;;;;;;5056138;28;19975;-80
2023/03/07 09:09:43;;;;;;;;;;;3.50;99.90;;;;;;5065580;28;19924;-80
2023/03/07 09:12:09;;;;;;;;;;;3.50;99.90;;;;;;5060870;28;19928;-79
2023/03/07 09:14:35;;;;;;;;;;;3.50;99.90;;;;;;5078762;28;19924;-81
2023/03/07 09:17:01;;;;;;;;;;;3.60;99.90;;;;;;5079365;28;19924;-79
2023/03/07 09:19:27;;;;;;;;;;;3.70;99.90;;;;;;5078071;28;19931;-80
2023/03/07 09:21:52;;;;;;;;;;;3.70;99.90;;;;;;5059139;28;19924;-80
2023/03/07 09:24:18;;;;;;;;;;;3.80;99.90;;;;;;5072231;28;20080;-80
2023/03/07 09:26:44;;;;;;;;;;;3.80;99.90;;;;;;5078640;28;19950;-80
2023/03/07 09:29:09;;;;;;;;;;;3.80;99.90;;;;;;5076974;28;19925;-79
2023/03/07 09:31:35;;;;;;;;;;;3.80;99.90;;;;;;5078228;28;20511;-80
2023/03/07 09:34:00;;;;;;;;;;;3.90;99.90;;;;;;5079629;28;19935;-80
2023/03/07 09:36:26;;;;;;;;;;;3.90;99.90;;;;;;5067348;28;19991;-80
2023/03/07 09:38:52;;;;;;;;;;;4.00;99.90;;;;;;5099332;28;19924;-80
2023/03/07 09:41:28;;;;;;;;;;;4.00;99.90;;;;;;5064126;28;19924;-80
2023/03/07 09:44:09;;;;;;;;;;;4.10;99.90;;;;;;5082381;28;19978;-80
2023/03/07 09:46:38;;;;;;;;;;;4.20;99.90;;;;;;5066793;28;19947;-80
2023/03/07 09:49:15;;;;;;;;;;;4.20;99.90;;;;;;5081090;28;19996;-79
2023/03/07 09:51:41;;;;;;;;;;;4.30;99.90;;;;;;5068016;28;19946;-79
2023/03/07 09:54:31;;;;;;;;;;;4.30;99.90;;;;;;5080147;28;20295;-80
2023/03/07 09:56:58;;;;;;;;;;;4.40;99.90;;;;;;5081687;28;19924;-80
2023/03/07 09:59:42;;;;;;;;;;;4.50;99.90;;;;;;5080549;28;19963;-80
2023/03/07 10:02:19;;;;;;;;;;;4.50;99.90;;;;;;5097255;28;19931;-80
2023/03/07 10:05:03;;;;;;;;;;;4.70;99.90;;;;;;5081743;28;19928;-80
2023/03/07 10:07:30;;;;;;;;;;;4.80;99.90;;;;;;5094478;28;19935;-80
2023/03/07 10:10:04;;;;;;;;;;;4.90;99.90;;;;;;5086744;28;19928;-80
2023/03/07 10:12:41;;;;;;;;;;;4.90;99.90;;;;;;5097661;28;19931;-80
2023/03/07 10:15:09;;;;;;;;;;;5.00;99.90;;;;;;5080074;28;19971;-80
2023/03/07 10:17:54;;;;;;;;;;;5.00;99.90;;;;;;5081199;28;19928;-80
2023/03/07 10:20:35;;;;;;;;;;;5.00;99.90;;;;;;5079547;28;19934;-80
2023/03/07 10:23:03;;;;;;;;;;;4.90;99.90;;;;;;5080569;28;19931;-80
2023/03/07 10:25:29;;;;;;;;;;;4.80;99.90;;;;;;5081341;28;20407;-80
2023/03/07 10:28:00;;;;;;;;;;;4.70;99.90;;;;;;5080245;28;19928;-80
2023/03/07 10:30:30;;;;;;;;;;;4.70;99.90;;;;;;5077979;28;19924;-77
2023/03/07 10:32:58;;;;;;;;;;;4.70;99.90;;;;;;5101944;28;19935;-77
2023/03/07 10:35:39;;;;;;;;;;;4.70;99.90;;;;;;5066781;28;19949;-78
2023/03/07 10:38:15;;;;;;;;;;;4.80;99.90;;;;;;5080383;28;20286;-77
2023/03/07 10:40:55;;;;;;;;;;;4.90;99.90;;;;;;5079976;28;19954;-78
2023/03/07 10:43:26;;;;;;;;;;;5.00;99.90;;;;;;5078582;28;19924;-77
2023/03/07 10:46:10;;;;;;;;;;;5.10;99.90;;;;;;5078131;28;19970;-77
2023/03/07 10:48:37;;;;;;;;;;;5.20;99.90;;;;;;5080461;28;19924;-77
2023/03/07 10:51:21;;;;;;;;;;;5.30;99.90;;;;;;5077883;28;19931;-79
2023/03/07 10:53:49;;;;;;;;;;;5.40;99.90;;;;;;5076271;28;19924;-79
2023/03/07 10:56:15;;;;;;;;;;;5.40;99.90;;;;;;5080870;28;20081;-79
2023/03/07 10:58:56;;;;;;;;;;;5.50;99.90;;;;;;5093844;28;19924;-79
2023/03/07 11:01:24;;;;;;;;;;;5.50;99.90;;;;;;5077446;28;19946;-79
2023/03/07 11:03:51;;;;;;;;;;;5.60;99.90;;;;;;5080201;28;19973;-79
2023/03/07 11:06:35;;;;;;;;;;;5.70;99.90;;;;;;5096563;28;19935;-79
2023/03/07 11:09:14;;;;;;;;;;;5.70;99.90;;;;;;5071440;28;19932;-79
2023/03/07 11:11:45;;;;;;;;;;;5.90;99.90;;;;;;5095131;28;19934;-79
2023/03/07 11:14:12;;;;;;;;;;;6.00;99.90;;;;;;5079934;28;19928;-79
2023/03/07 11:16:46;;;;;;;;;;;6.00;99.90;;;;;;5077241;28;19924;-79
2023/03/07 11:19:32;;;;;;;;;;;6.00;99.90;;;;;;5075639;28;19935;-80
2023/03/07 11:21:58;;;;;;;;;;;6.10;99.90;;;;;;5067369;28;19932;-80
2023/03/07 11:24:25;;;;;;;;;;;6.20;99.90;;;;;;5078177;28;19932;-79
2023/03/07 11:26:55;;;;;;;;;;;6.20;99.90;;;;;;5097076;28;19962;-79
2023/03/07 11:29:21;;;;;;;;;;;6.20;99.90;;;;;;5095630;28;19924;-79
2023/03/07 11:32:05;;;;;;;;;;;6.20;99.90;;;;;;5058881;28;19972;-80
2023/03/07 11:34:31;;;;;;;;;;;6.30;99.90;;;;;;5074978;28;19931;-80
2023/03/07 11:37:22;;;;;;;;;;;6.30;99.90;;;;;;5078225;28;19925;-80
2023/03/07 11:39:58;;;;;;;;;;;6.20;99.90;;;;;;5056527;28;19924;-80
2023/03/07 11:42:27;;;;;;;;;;;6.30;99.90;;;;;;5079223;28;19991;-80
2023/03/07 11:45:02;;;;;;;;;;;6.40;99.90;;;;;;5079818;28;19938;-79
2023/03/07 11:47:38;;;;;;;;;;;6.50;99.90;;;;;;5081172;28;19930;-79
2023/03/07 11:50:21;;;;;;;;;;;6.60;99.90;;;;;;5078777;28;19943;-79
2023/03/07 11:53:05;;;;;;;;;;;6.60;99.90;;;;;;5080796;28;19932;-79
2023/03/07 11:55:34;;;;;;;;;;;6.70;99.90;;;;;;5079376;28;19985;-79
2023/03/07 11:58:09;;;;;;;;;;;6.70;99.90;;;;;;5075287;28;19963;-80
2023/03/07 12:00:51;;;;;;;;;;;6.70;99.90;;;;;;5106349;28;19924;-80
2023/03/07 12:03:19;;;;;;;;;;;6.70;99.90;;;;;;5077581;28;20123;-80
2023/03/07 12:05:57;;;;;;;;;;;6.80;99.90;;;;;;5070778;28;20347;-80
2023/03/07 12:08:36;;;;;;;;;;;6.80;99.90;;;;;;5065152;28;19925;-80
2023/03/07 12:11:05;;;;;;;;;;;6.80;99.90;;;;;;5092020;28;19924;-80
2023/03/07 12:13:40;;;;;;;;;;;6.80;99.90;;;;;;5079577;28;19924;-80
2023/03/07 12:16:29;;;;;;;;;;;6.80;99.90;;;;;;5076509;28;19928;-74
2023/03/07 12:19:01;;;;;;;;;;;6.90;99.90;;;;;;5066115;28;19928;-74
2023/03/07 12:22:02;;;;;;;;;;;7.00;99.90;;;;;;5100208;28;20013;-73
2023/03/07 12:24:31;;;;;;;;;;;7.10;99.90;;;;;;5034399;28;19924;-74
2023/03/07 12:26:57;;;;;;;;;;;7.30;99.90;;;;;;5096056;28;19976;-74
2023/03/07 12:29:34;;;;;;;;;;;7.40;99.90;;;;;;5077630;28;19974;-74
2023/03/07 12:32:03;;;;;;;;;;;7.40;99.90;;;;;;5127384;27;19924;-74
2023/03/07 12:34:33;;;;;;;;;;;7.30;99.90;;;;;;5078017;28;19924;-74
2023/03/07 12:37:05;;;;;;;;;;;7.30;99.90;;;;;;5076933;28;19924;-74
2023/03/07 12:39:49;;;;;;;;;;;7.10;99.90;;;;;;5091339;28;19969;-74
2023/03/07 12:42:15;;;;;;;;;;;7.00;99.90;;;;;;5063278;28;19935;-73
2023/03/07 12:44:59;;;;;;;;;;;6.90;99.90;;;;;;5105173;28;19924;-74
2023/03/07 12:47:29;;;;;;;;;;;6.80;99.90;;;;;;5068381;28;19963;-74
2023/03/07 12:49:58;;;;;;;;;;;6.70;99.90;;;;;;5069989;28;19964;-74
2023/03/07 12:52:29;;;;;;;;;;;6.60;99.90;;;;;;5092354;28;19924;-73
2023/03/07 12:55:07;;;;;;;;;;;6.10;99.90;;;;;;5093012;28;19924;-73
2023/03/07 12:57:35;;;;;;;;;;;5.40;99.90;;;;;;5077465;28;19924;-72
2023/03/07 13:00:03;;;;;;;;;;;4.80;99.90;;;;;;5077208;28;19924;-72
2023/03/07 13:02:31;;;;;;;;;;;4.40;99.90;;;;;;5114843;28;19931;-73
2023/03/07 13:04:58;;;;;;;;;;;4.20;99.90;;;;;;5077110;28;20180;-74
2023/03/07 13:07:25;;;;;;;;;;;4.20;99.90;;;;;;5073944;28;19924;-75
2023/03/07 13:09:52;;;;;;;;;;;4.20;99.90;;;;;;5107587;28;19938;-75
2023/03/07 13:12:25;;;;;;;;;;;4.30;99.90;;;;;;5082142;28;19924;-77
2023/03/07 13:15:05;;;;;;;;;;;4.30;99.90;;;;;;5095368;28;19967;-74
2023/03/07 13:17:31;;;;;;;;;;;4.50;99.90;;;;;;5081529;28;19931;-75
2023/03/07 13:19:57;;;;;;;;;;;4.70;99.90;;;;;;5079946;28;19925;-75
2023/03/07 13:22:23;;;;;;;;;;;4.80;99.90;;;;;;5099008;28;19935;-75
2023/03/07 13:24:59;;;;;;;;;;;4.90;99.90;;;;;;5097331;28;19967;-75
2023/03/07 13:27:40;;;;;;;;;;;5.10;99.90;;;;;;5098763;28;19928;-75
2023/03/07 13:30:08;;;;;;;;;;;5.20;99.90;;;;;;5098710;28;19924;-75
2023/03/07 13:32:49;;;;;;;;;;;5.30;99.90;;;;;;5078612;28;19971;-74
2023/03/07 13:35:27;;;;;;;;;;;5.50;99.90;;;;;;5080956;28;19924;-75
2023/03/07 13:37:56;;;;;;;;;;;5.60;99.90;;;;;;5092449;28;19994;-83
2023/03/07 13:40:27;;;;;;;;;;;5.70;99.90;;;;;;5081521;28;19981;-82
2023/03/07 13:42:53;;;;;;;;;;;5.90;99.90;;;;;;5082117;28;19924;-83
2023/03/07 13:45:45;;;;;;;;;;;5.90;99.90;;;;;;5080328;28;19943;-82
2023/03/07 13:48:14;;;;;;;;;;;6.00;99.90;;;;;;5078871;28;19924;-83
2023/03/07 13:50:49;;;;;;;;;;;6.10;99.90;;;;;;5080844;28;19935;-83
2023/03/07 13:53:17;;;;;;;;;;;6.10;99.90;;;;;;5097828;28;19957;-84
2023/03/07 13:55:49;;;;;;;;;;;6.20;99.90;;;;;;5074495;28;19928;-84
2023/03/07 13:58:18;;;;;;;;;;;6.20;99.90;;;;;;5074832;28;19924;-83
2023/03/07 14:00:49;;;;;;;;;;;6.30;99.90;;;;;;5081600;28;19931;-84
2023/03/07 14:03:27;;;;;;;;;;;6.30;99.90;;;;;;5080643;28;19955;-76
2023/03/07 14:05:53;;;;;;;;;;;6.30;99.90;;;;;;5095372;28;19987;-76
2023/03/07 14:08:21;;;;;;;;;;;6.30;99.90;;;;;;5088904;28;19930;-76
2023/03/07 14:10:47;;;;;;;;;;;6.30;99.90;;;;;;5078408;28;19923;-74
2023/03/07 14:13:12;;;;;;;;;;;6.30;99.90;;;;;;5059433;28;20395;-74
2023/03/07 14:15:38;;;;;;;;;;;6.20;99.90;;;;;;5124705;27;19965;-74
2023/03/07 14:18:22;;;;;;;;;;;6.20;99.90;;;;;;5081631;28;19946;-74
2023/03/07 14:20:54;;;;;;;;;;;6.10;99.90;;;;;;5079641;28;20041;-74
2023/03/07 14:23:33;;;;;;;;;;;6.10;99.90;;;;;;5097219;28;20332;-74
2023/03/07 14:26:14;;;;;;;;;;;6.10;99.90;;;;;;5081257;28;19972;-74
2023/03/07 14:28:51;;;;;;;;;;;6.10;99.90;;;;;;5096813;28;19924;-74
2023/03/07 14:31:21;;;;;;;;;;;6.00;99.90;;;;;;5080796;28;19935;-74
2023/03/07 14:33:46;;;;;;;;;;;6.00;99.90;;;;;;5097796;28;19924;-74
2023/03/07 14:36:17;;;;;;;;;;;6.00;99.90;;;;;;5097116;28;20026;-74
2023/03/07 14:38:44;;;;;;;;;;;5.90;99.90;;;;;;5098451;28;19924;-74